Rose City, Texas
Current Conditions -  °F | °C
As of 4:35 PM on Monday 22 Dec 2014 (Local Time) from KBMT Reporting Station
Clear Clear  
Wind Chill: 69°   Ceiling: Unl
Heat Index: 69°   Visibility: 10mi
Dew Point: 63°   Wind: 14mph
Humidity: 80%   Direction: 210°SSW
Pressure: 29.62"   Gusts: 22mph
Location:  30.1707°N, 94.0082°W
Report Text: KBMT 222235Z AUTO 21012G19KT 10SM CLR 21/17 A2962 RMK AO2 T02070171
Loading
Personal Weather Stations






























Interactive Weather Map New forecast layout! Learn more

10-Day Weather Forecast

Advertisements
Track Severe Weather on mobile